sensor_id;sensor_type;location;lat;lon;timestamp;pressure;altitude;pressure_sealevel;temperature;humidity
85331;BME280;75738;44.496;11.344;2024-01-25T00:01:50;101870.30;;;8.03;58.43
85331;BME280;75738;44.496;11.344;2024-01-25T00:04:20;101881.62;;;8.18;58.07
85331;BME280;75738;44.496;11.344;2024-01-25T00:06:48;101882.72;;;8.21;57.97
85331;BME280;75738;44.496;11.344;2024-01-25T00:09:15;101871.30;;;8.13;58.34
85331;BME280;75738;44.496;11.344;2024-01-25T00:11:43;101870.99;;;8.18;58.00
85331;BME280;75738;44.496;11.344;2024-01-25T00:14:10;101871.85;;;8.24;57.89
85331;BME280;75738;44.496;11.344;2024-01-25T00:16:42;101869.88;;;8.15;58.18
85331;BME280;75738;44.496;11.344;2024-01-25T00:19:09;101859.91;;;8.24;58.08
85331;BME280;75738;44.496;11.344;2024-01-25T00:21:41;101866.27;;;8.16;58.18
85331;BME280;75738;44.496;11.344;2024-01-25T00:24:11;101867.41;;;8.25;58.29
85331;BME280;75738;44.496;11.344;2024-01-25T00:26:39;101870.06;;;8.25;58.35
85331;BME280;75738;44.496;11.344;2024-01-25T00:29:07;101863.66;;;8.27;58.35
85331;BME280;75738;44.496;11.344;2024-01-25T00:31:34;101852.19;;;8.21;58.65
85331;BME280;75738;44.496;11.344;2024-01-25T00:34:02;101858.48;;;8.26;58.69
85331;BME280;75738;44.496;11.344;2024-01-25T00:36:30;101863.08;;;8.29;58.73
85331;BME280;75738;44.496;11.344;2024-01-25T00:38:58;101865.75;;;8.11;59.23
85331;BME280;75738;44.496;11.344;2024-01-25T00:41:25;101863.53;;;8.04;59.56
85331;BME280;75738;44.496;11.344;2024-01-25T00:43:54;101860.94;;;8.10;59.39
85331;BME280;75738;44.496;11.344;2024-01-25T00:46:22;101852.19;;;8.21;59.28
85331;BME280;75738;44.496;11.344;2024-01-25T00:48:50;101851.08;;;8.18;59.52
85331;BME280;75738;44.496;11.344;2024-01-25T00:51:20;101854.22;;;8.23;59.41
85331;BME280;75738;44.496;11.344;2024-01-25T00:53:48;101850.48;;;8.20;59.78
85331;BME280;75738;44.496;11.344;2024-01-25T00:56:16;101846.70;;;8.11;60.09
85331;BME280;75738;44.496;11.344;2024-01-25T00:58:44;101847.47;;;8.19;59.83
85331;BME280;75738;44.496;11.344;2024-01-25T01:01:11;101849.53;;;8.21;59.59
85331;BME280;75738;44.496;11.344;2024-01-25T01:03:39;101845.03;;;8.16;59.82
85331;BME280;75738;44.496;11.344;2024-01-25T01:06:09;101855.06;;;8.18;59.87
85331;BME280;75738;44.496;11.344;2024-01-25T01:08:37;101862.16;;;8.17;59.70
85331;BME280;75738;44.496;11.344;2024-01-25T01:11:04;101853.14;;;8.20;60.03
85331;BME280;75738;44.496;11.344;2024-01-25T01:13:32;101856.17;;;8.21;59.81
85331;BME280;75738;44.496;11.344;2024-01-25T01:15:59;101860.64;;;8.26;59.68
85331;BME280;75738;44.496;11.344;2024-01-25T01:18:27;101860.78;;;8.30;59.44
85331;BME280;75738;44.496;11.344;2024-01-25T01:20:54;101857.39;;;8.28;59.46
85331;BME280;75738;44.496;11.344;2024-01-25T01:23:22;101861.97;;;8.26;59.53
85331;BME280;75738;44.496;11.344;2024-01-25T01:25:49;101861.50;;;8.27;59.38
85331;BME280;75738;44.496;11.344;2024-01-25T01:28:16;101859.63;;;8.16;59.86
85331;BME280;75738;44.496;11.344;2024-01-25T01:30:44;101861.35;;;8.23;59.58
85331;BME280;75738;44.496;11.344;2024-01-25T01:33:12;101857.61;;;8.25;59.57
85331;BME280;75738;44.496;11.344;2024-01-25T01:35:39;101861.98;;;8.08;60.21
85331;BME280;75738;44.496;11.344;2024-01-25T01:38:07;101855.91;;;8.00;60.28
85331;BME280;75738;44.496;11.344;2024-01-25T01:40:34;101852.33;;;8.07;60.07
85331;BME280;75738;44.496;11.344;2024-01-25T01:43:02;101854.98;;;8.07;60.02
85331;BME280;75738;44.496;11.344;2024-01-25T01:45:29;101847.55;;;7.93;60.33
85331;BME280;75738;44.496;11.344;2024-01-25T01:47:58;101838.84;;;7.91;60.30
85331;BME280;75738;44.496;11.344;2024-01-25T01:50:26;101831.06;;;8.01;60.16
85331;BME280;75738;44.496;11.344;2024-01-25T01:52:54;101832.52;;;7.99;60.27
85331;BME280;75738;44.496;11.344;2024-01-25T01:55:22;101840.53;;;8.11;60.08
85331;BME280;75738;44.496;11.344;2024-01-25T01:57:49;101841.61;;;8.08;60.22
85331;BME280;75738;44.496;11.344;2024-01-25T02:00:17;101846.62;;;8.00;60.47
85331;BME280;75738;44.496;11.344;2024-01-25T02:02:44;101840.48;;;7.99;60.36
85331;BME280;75738;44.496;11.344;2024-01-25T02:05:12;101840.27;;;7.84;60.92
85331;BME280;75738;44.496;11.344;2024-01-25T02:07:42;101831.50;;;7.95;60.61
85331;BME280;75738;44.496;11.344;2024-01-25T02:10:10;101831.92;;;8.01;60.41
85331;BME280;75738;44.496;11.344;2024-01-25T02:12:38;101832.88;;;8.00;60.50
85331;BME280;75738;44.496;11.344;2024-01-25T02:15:06;101834.34;;;7.86;60.88
85331;BME280;75738;44.496;11.344;2024-01-25T02:17:34;101833.70;;;7.77;60.93
85331;BME280;75738;44.496;11.344;2024-01-25T02:20:01;101836.03;;;7.68;61.11
85331;BME280;75738;44.496;11.344;2024-01-25T02:22:29;101841.66;;;7.77;60.67
85331;BME280;75738;44.496;11.344;2024-01-25T02:24:57;101838.05;;;7.78;60.47
85331;BME280;75738;44.496;11.344;2024-01-25T02:27:24;101845.45;;;7.85;60.23
85331;BME280;75738;44.496;11.344;2024-01-25T02:29:52;101840.08;;;7.74;60.56
85331;BME280;75738;44.496;11.344;2024-01-25T02:32:19;101830.61;;;7.64;60.79
85331;BME280;75738;44.496;11.344;2024-01-25T02:34:47;101833.16;;;7.53;61.42
85331;BME280;75738;44.496;11.344;2024-01-25T02:37:14;101833.10;;;7.60;60.96
85331;BME280;75738;44.496;11.344;2024-01-25T02:39:41;101820.84;;;7.52;61.13
85331;BME280;75738;44.496;11.344;2024-01-25T02:42:09;101817.92;;;7.62;60.79
85331;BME280;75738;44.496;11.344;2024-01-25T02:44:36;101832.34;;;7.71;60.61
85331;BME280;75738;44.496;11.344;2024-01-25T02:47:04;101827.45;;;7.65;60.70
85331;BME280;75738;44.496;11.344;2024-01-25T02:49:31;101825.36;;;7.57;61.00
85331;BME280;75738;44.496;11.344;2024-01-25T02:51:59;101825.80;;;7.69;60.73
85331;BME280;75738;44.496;11.344;2024-01-25T02:54:27;101828.75;;;7.59;61.46
85331;BME280;75738;44.496;11.344;2024-01-25T02:56:54;101824.06;;;7.63;61.63
85331;BME280;75738;44.496;11.344;2024-01-25T02:59:21;101824.34;;;7.65;61.69
85331;BME280;75738;44.496;11.344;2024-01-25T03:01:49;101819.64;;;7.50;62.00
85331;BME280;75738;44.496;11.344;2024-01-25T03:04:16;101814.75;;;7.57;61.98
85331;BME280;75738;44.496;11.344;2024-01-25T03:06:44;101800.53;;;7.58;61.69
85331;BME280;75738;44.496;11.344;2024-01-25T03:09:13;101800.53;;;7.58;61.91
85331;BME280;75738;44.496;11.344;2024-01-25T03:11:40;101796.00;;;7.66;61.69
85331;BME280;75738;44.496;11.344;2024-01-25T03:14:08;101795.28;;;7.69;61.48
85331;BME280;75738;44.496;11.344;2024-01-25T03:16:35;101798.52;;;7.49;62.11
85331;BME280;75738;44.496;11.344;2024-01-25T03:19:02;101794.52;;;7.62;61.72
85331;BME280;75738;44.496;11.344;2024-01-25T03:21:30;101798.09;;;7.55;61.85
85331;BME280;75738;44.496;11.344;2024-01-25T03:23:57;101803.98;;;7.53;62.10
85331;BME280;75738;44.496;11.344;2024-01-25T03:26:27;101797.13;;;7.56;62.02
85331;BME280;75738;44.496;11.344;2024-01-25T03:28:54;101806.63;;;7.53;62.09
85331;BME280;75738;44.496;11.344;2024-01-25T03:31:22;101803.73;;;7.50;61.96
85331;BME280;75738;44.496;11.344;2024-01-25T03:33:49;101797.09;;;7.50;62.04
85331;BME280;75738;44.496;11.344;2024-01-25T03:36:17;101796.75;;;7.36;62.32
85331;BME280;75738;44.496;11.344;2024-01-25T03:38:44;101803.66;;;7.39;61.70
85331;BME280;75738;44.496;11.344;2024-01-25T03:41:12;101800.56;;;7.32;61.58
85331;BME280;75738;44.496;11.344;2024-01-25T03:43:39;101812.81;;;7.40;61.43
85331;BME280;75738;44.496;11.344;2024-01-25T03:46:06;101803.09;;;7.28;62.07
85331;BME280;75738;44.496;11.344;2024-01-25T03:48:34;101789.63;;;7.18;62.04
85331;BME280;75738;44.496;11.344;2024-01-25T03:51:01;101793.32;;;7.16;62.17
85331;BME280;75738;44.496;11.344;2024-01-25T03:53:29;101793.07;;;7.13;62.37
85331;BME280;75738;44.496;11.344;2024-01-25T03:55:56;101796.63;;;7.06;62.73
85331;BME280;75738;44.496;11.344;2024-01-25T03:58:24;101804.71;;;7.23;62.14
85331;BME280;75738;44.496;11.344;2024-01-25T04:00:51;101810.51;;;7.23;62.14
85331;BME280;75738;44.496;11.344;2024-01-25T04:03:19;101809.39;;;7.20;62.28
85331;BME280;75738;44.496;11.344;2024-01-25T04:05:47;101806.95;;;7.17;62.33
85331;BME280;75738;44.496;11.344;2024-01-25T04:08:14;101811.88;;;7.16;62.27
85331;BME280;75738;44.496;11.344;2024-01-25T04:10:43;101811.84;;;7.10;62.42
85331;BME280;75738;44.496;11.344;2024-01-25T04:13:11;101817.63;;;7.09;62.50
85331;BME280;75738;44.496;11.344;2024-01-25T04:15:38;101805.05;;;7.19;62.30
85331;BME280;75738;44.496;11.344;2024-01-25T04:18:06;101823.67;;;7.11;62.46
85331;BME280;75738;44.496;11.344;2024-01-25T04:20:33;101820.73;;;7.22;62.17
85331;BME280;75738;44.496;11.344;2024-01-25T04:23:01;101820.78;;;7.27;61.80
85331;BME280;75738;44.496;11.344;2024-01-25T04:25:28;101821.90;;;7.31;61.77
85331;BME280;75738;44.496;11.344;2024-01-25T04:27:55;101838.64;;;7.31;61.97
85331;BME280;75738;44.496;11.344;2024-01-25T04:30:23;101829.52;;;7.22;62.04
85331;BME280;75738;44.496;11.344;2024-01-25T04:32:50;101826.83;;;7.17;62.21
85331;BME280;75738;44.496;11.344;2024-01-25T04:35:18;101826.67;;;7.12;62.31
85331;BME280;75738;44.496;11.344;2024-01-25T04:37:45;101834.31;;;7.04;62.62
85331;BME280;75738;44.496;11.344;2024-01-25T04:40:13;101830.51;;;7.08;62.59
85331;BME280;75738;44.496;11.344;2024-01-25T04:42:40;101822.11;;;7.15;62.44
85331;BME280;75738;44.496;11.344;2024-01-25T04:45:08;101830.55;;;7.14;62.27
85331;BME280;75738;44.496;11.344;2024-01-25T04:47:37;101840.25;;;7.21;61.93
85331;BME280;75738;44.496;11.344;2024-01-25T04:50:06;101819.95;;;7.14;62.06
85331;BME280;75738;44.496;11.344;2024-01-25T04:52:33;101830.02;;;7.22;61.54
85331;BME280;75738;44.496;11.344;2024-01-25T04:55:01;101824.84;;;7.20;61.41
85331;BME280;75738;44.496;11.344;2024-01-25T04:57:29;101813.63;;;7.22;61.35
85331;BME280;75738;44.496;11.344;2024-01-25T04:59:56;101817.23;;;7.21;61.42
85331;BME280;75738;44.496;11.344;2024-01-25T05:02:23;101830.39;;;7.23;61.51
85331;BME280;75738;44.496;11.344;2024-01-25T05:04:51;101822.44;;;7.23;61.60
85331;BME280;75738;44.496;11.344;2024-01-25T05:07:18;101826.09;;;7.27;61.38
85331;BME280;75738;44.496;11.344;2024-01-25T05:09:46;101828.89;;;7.06;61.91
85331;BME280;75738;44.496;11.344;2024-01-25T05:12:15;101835.22;;;6.97;62.16
85331;BME280;75738;44.496;11.344;2024-01-25T05:14:42;101818.30;;;7.06;62.04
85331;BME280;75738;44.496;11.344;2024-01-25T05:17:10;101833.67;;;6.88;62.55
85331;BME280;75738;44.496;11.344;2024-01-25T05:19:37;101832.77;;;6.94;62.41
85331;BME280;75738;44.496;11.344;2024-01-25T05:22:04;101832.03;;;6.92;62.57
85331;BME280;75738;44.496;11.344;2024-01-25T05:24:33;101839.86;;;6.94;62.60
85331;BME280;75738;44.496;11.344;2024-01-25T05:27:01;101839.75;;;6.82;63.00
85331;BME280;75738;44.496;11.344;2024-01-25T05:29:28;101841.08;;;6.82;62.90
85331;BME280;75738;44.496;11.344;2024-01-25T05:31:56;101842.58;;;6.87;62.69
85331;BME280;75738;44.496;11.344;2024-01-25T05:34:24;101841.40;;;6.78;63.09
85331;BME280;75738;44.496;11.344;2024-01-25T05:36:51;101851.56;;;6.71;63.37
85331;BME280;75738;44.496;11.344;2024-01-25T05:39:19;101852.08;;;6.76;63.23
85331;BME280;75738;44.496;11.344;2024-01-25T05:41:47;101858.50;;;6.79;63.39
85331;BME280;75738;44.496;11.344;2024-01-25T05:44:14;101843.16;;;6.85;63.24
85331;BME280;75738;44.496;11.344;2024-01-25T05:46:42;101840.33;;;6.80;63.46
85331;BME280;75738;44.496;11.344;2024-01-25T05:49:09;101844.66;;;6.69;63.68
85331;BME280;75738;44.496;11.344;2024-01-25T05:51:36;101843.16;;;6.85;63.28
85331;BME280;75738;44.496;11.344;2024-01-25T05:54:04;101830.83;;;6.91;63.17
85331;BME280;75738;44.496;11.344;2024-01-25T05:56:32;101830.13;;;6.94;63.00
85331;BME280;75738;44.496;11.344;2024-01-25T05:58:59;101834.80;;;6.91;63.10
85331;BME280;75738;44.496;11.344;2024-01-25T06:01:27;101831.02;;;6.88;63.14
85331;BME280;75738;44.496;11.344;2024-01-25T06:03:54;101831.44;;;6.81;63.43
85331;BME280;75738;44.496;11.344;2024-01-25T06:06:21;101825.15;;;6.90;63.20
85331;BME280;75738;44.496;11.344;2024-01-25T06:08:49;101829.73;;;6.80;63.43
85331;BME280;75738;44.496;11.344;2024-01-25T06:11:16;101832.12;;;6.78;63.58
85331;BME280;75738;44.496;11.344;2024-01-25T06:13:45;101846.87;;;6.82;63.38
85331;BME280;75738;44.496;11.344;2024-01-25T06:16:13;101852.17;;;6.82;63.11
85331;BME280;75738;44.496;11.344;2024-01-25T06:18:40;101850.98;;;6.86;62.77
85331;BME280;75738;44.496;11.344;2024-01-25T06:21:08;101852.97;;;6.90;62.94
85331;BME280;75738;44.496;11.344;2024-01-25T06:23:35;101852.97;;;6.90;63.24
85331;BME280;75738;44.496;11.344;2024-01-25T06:26:02;101867.00;;;6.85;63.33
85331;BME280;75738;44.496;11.344;2024-01-25T06:28:31;101858.06;;;6.93;63.06
85331;BME280;75738;44.496;11.344;2024-01-25T06:31:05;101853.23;;;6.92;62.93
85331;BME280;75738;44.496;11.344;2024-01-25T06:33:29;101853.23;;;6.92;63.00
85331;BME280;75738;44.496;11.344;2024-01-25T06:35:58;101866.42;;;6.87;63.41
85331;BME280;75738;44.496;11.344;2024-01-25T06:38:25;101860.87;;;6.84;63.33
85331;BME280;75738;44.496;11.344;2024-01-25T06:40:52;101865.67;;;6.85;63.26
85331;BME280;75738;44.496;11.344;2024-01-25T06:43:20;101860.69;;;6.80;63.62
85331;BME280;75738;44.496;11.344;2024-01-25T06:45:47;101859.31;;;6.74;63.67
85331;BME280;75738;44.496;11.344;2024-01-25T06:48:15;101852.31;;;6.73;63.70
85331;BME280;75738;44.496;11.344;2024-01-25T06:50:42;101844.07;;;6.91;63.19
85331;BME280;75738;44.496;11.344;2024-01-25T06:53:10;101840.70;;;6.81;63.65
85331;BME280;75738;44.496;11.344;2024-01-25T06:55:37;101837.97;;;6.83;63.59
85331;BME280;75738;44.496;11.344;2024-01-25T06:58:05;101836.91;;;6.86;63.70
85331;BME280;75738;44.496;11.344;2024-01-25T07:00:32;101843.33;;;6.89;63.41
85331;BME280;75738;44.496;11.344;2024-01-25T07:02:59;101848.88;;;6.91;63.29
85331;BME280;75738;44.496;11.344;2024-01-25T07:05:27;101866.14;;;6.71;64.10
85331;BME280;75738;44.496;11.344;2024-01-25T07:07:56;101858.96;;;6.66;64.29
85331;BME280;75738;44.496;11.344;2024-01-25T07:10:24;101862.39;;;6.81;63.87
85331;BME280;75738;44.496;11.344;2024-01-25T07:12:51;101849.61;;;6.80;64.04
85331;BME280;75738;44.496;11.344;2024-01-25T07:15:20;101852.22;;;6.88;63.62
85331;BME280;75738;44.496;11.344;2024-01-25T07:17:48;101853.00;;;6.82;63.75
85331;BME280;75738;44.496;11.344;2024-01-25T07:20:15;101852.80;;;6.86;63.71
85331;BME280;75738;44.496;11.344;2024-01-25T07:22:43;101858.13;;;6.78;64.00
85331;BME280;75738;44.496;11.344;2024-01-25T07:25:10;101855.45;;;6.86;63.71
85331;BME280;75738;44.496;11.344;2024-01-25T07:27:37;101846.48;;;6.94;63.74
85331;BME280;75738;44.496;11.344;2024-01-25T07:30:05;101844.68;;;6.81;63.77
85331;BME280;75738;44.496;11.344;2024-01-25T07:32:35;101844.13;;;6.96;63.38
85331;BME280;75738;44.496;11.344;2024-01-25T07:35:03;101845.76;;;7.18;61.95
85331;BME280;75738;44.496;11.344;2024-01-25T07:37:30;101854.67;;;6.91;62.71
85331;BME280;75738;44.496;11.344;2024-01-25T07:39:58;101845.31;;;6.85;62.93
85331;BME280;75738;44.496;11.344;2024-01-25T07:42:25;101834.95;;;6.82;63.23
85331;BME280;75738;44.496;11.344;2024-01-25T07:44:53;101836.50;;;6.92;63.04
85331;BME280;75738;44.496;11.344;2024-01-25T07:47:21;101843.92;;;7.00;62.99
85331;BME280;75738;44.496;11.344;2024-01-25T07:49:48;101854.50;;;6.87;63.50
85331;BME280;75738;44.496;11.344;2024-01-25T07:52:16;101853.43;;;6.89;63.51
85331;BME280;75738;44.496;11.344;2024-01-25T07:54:43;101852.91;;;6.97;63.37
85331;BME280;75738;44.496;11.344;2024-01-25T07:57:11;101871.34;;;6.86;63.86
85331;BME280;75738;44.496;11.344;2024-01-25T07:59:38;101868.98;;;7.01;63.35
85331;BME280;75738;44.496;11.344;2024-01-25T08:02:06;101870.13;;;6.97;62.79
85331;BME280;75738;44.496;11.344;2024-01-25T08:04:33;101878.63;;;7.02;61.90
85331;BME280;75738;44.496;11.344;2024-01-25T08:07:01;101888.86;;;7.01;61.76
85331;BME280;75738;44.496;11.344;2024-01-25T08:09:29;101890.38;;;6.98;61.25
85331;BME280;75738;44.496;11.344;2024-01-25T08:11:56;101893.47;;;6.92;61.21
85331;BME280;75738;44.496;11.344;2024-01-25T08:14:24;101899.75;;;6.84;61.20
85331;BME280;75738;44.496;11.344;2024-01-25T08:16:52;101906.11;;;6.81;61.29
85331;BME280;75738;44.496;11.344;2024-01-25T08:19:21;101909.80;;;6.78;61.02
85331;BME280;75738;44.496;11.344;2024-01-25T08:21:48;101905.58;;;6.69;60.95
85331;BME280;75738;44.496;11.344;2024-01-25T08:24:16;101913.39;;;6.57;61.18
85331;BME280;75738;44.496;11.344;2024-01-25T08:26:44;101915.81;;;6.40;61.55
85331;BME280;75738;44.496;11.344;2024-01-25T08:29:11;101916.48;;;6.36;62.04
85331;BME280;75738;44.496;11.344;2024-01-25T08:31:39;101916.74;;;6.46;61.95
85331;BME280;75738;44.496;11.344;2024-01-25T08:34:06;101913.77;;;6.38;62.21
85331;BME280;75738;44.496;11.344;2024-01-25T08:36:34;101912.39;;;6.45;62.19
85331;BME280;75738;44.496;11.344;2024-01-25T08:39:01;101927.71;;;6.47;62.36
85331;BME280;75738;44.496;11.344;2024-01-25T08:41:30;101938.63;;;6.63;62.15
85331;BME280;75738;44.496;11.344;2024-01-25T08:43:57;101943.36;;;6.58;62.33
85331;BME280;75738;44.496;11.344;2024-01-25T08:46:25;101939.18;;;6.68;62.38
85331;BME280;75738;44.496;11.344;2024-01-25T08:48:52;101934.44;;;6.73;62.34
85331;BME280;75738;44.496;11.344;2024-01-25T08:51:20;101930.98;;;6.78;62.18
85331;BME280;75738;44.496;11.344;2024-01-25T08:53:47;101939.75;;;6.86;62.29
85331;BME280;75738;44.496;11.344;2024-01-25T08:56:16;101938.89;;;6.93;61.87
85331;BME280;75738;44.496;11.344;2024-01-25T08:58:44;101940.94;;;6.95;61.77
85331;BME280;75738;44.496;11.344;2024-01-25T09:01:13;101952.09;;;7.00;62.08
85331;BME280;75738;44.496;11.344;2024-01-25T09:03:41;101964.94;;;7.06;61.76
85331;BME280;75738;44.496;11.344;2024-01-25T09:06:08;101956.91;;;7.21;61.45
85331;BME280;75738;44.496;11.344;2024-01-25T09:08:36;101961.80;;;7.27;60.96
85331;BME280;75738;44.496;11.344;2024-01-25T09:11:03;101974.54;;;7.35;60.98
85331;BME280;75738;44.496;11.344;2024-01-25T09:13:31;101982.69;;;7.32;61.23
85331;BME280;75738;44.496;11.344;2024-01-25T09:15:58;102001.86;;;7.42;61.00
85331;BME280;75738;44.496;11.344;2024-01-25T09:18:26;101992.46;;;7.44;60.85
85331;BME280;75738;44.496;11.344;2024-01-25T09:20:54;102011.60;;;7.42;60.91
85331;BME280;75738;44.496;11.344;2024-01-25T09:23:21;102017.71;;;7.50;60.76
85331;BME280;75738;44.496;11.344;2024-01-25T09:25:49;102013.13;;;7.59;60.75
85331;BME280;75738;44.496;11.344;2024-01-25T09:28:18;102032.27;;;7.57;60.75
85331;BME280;75738;44.496;11.344;2024-01-25T09:30:45;102005.74;;;7.57;60.70
85331;BME280;75738;44.496;11.344;2024-01-25T09:33:13;102017.78;;;7.68;60.53
85331;BME280;75738;44.496;11.344;2024-01-25T09:35:41;102021.52;;;7.92;60.49
85331;BME280;75738;44.496;11.344;2024-01-25T09:38:10;102008.91;;;8.14;59.78
85331;BME280;75738;44.496;11.344;2024-01-25T09:40:38;102031.13;;;8.31;59.30
85331;BME280;75738;44.496;11.344;2024-01-25T09:43:05;102019.84;;;8.54;57.50
85331;BME280;75738;44.496;11.344;2024-01-25T09:45:34;102033.86;;;8.56;57.24
85331;BME280;75738;44.496;11.344;2024-01-25T09:48:01;102033.83;;;8.69;57.29
85331;BME280;75738;44.496;11.344;2024-01-25T09:50:31;102025.59;;;8.85;56.27
85331;BME280;75738;44.496;11.344;2024-01-25T09:53:00;102031.67;;;8.92;56.43
85331;BME280;75738;44.496;11.344;2024-01-25T09:55:31;102039.25;;;9.10;56.11
85331;BME280;75738;44.496;11.344;2024-01-25T09:57:59;102029.81;;;9.12;55.26
85331;BME280;75738;44.496;11.344;2024-01-25T10:00:27;102042.98;;;9.13;54.56
85331;BME280;75738;44.496;11.344;2024-01-25T10:02:54;102039.62;;;9.11;54.77
85331;BME280;75738;44.496;11.344;2024-01-25T10:05:22;102048.50;;;9.04;54.74
85331;BME280;75738;44.496;11.344;2024-01-25T10:07:49;102036.69;;;9.08;54.31
85331;BME280;75738;44.496;11.344;2024-01-25T10:10:17;102041.53;;;9.09;54.52
85331;BME280;75738;44.496;11.344;2024-01-25T10:12:44;102035.27;;;9.10;54.20
85331;BME280;75738;44.496;11.344;2024-01-25T10:15:12;102034.74;;;9.05;54.86
85331;BME280;75738;44.496;11.344;2024-01-25T10:17:40;102027.34;;;8.97;55.09
85331;BME280;75738;44.496;11.344;2024-01-25T10:20:08;102026.69;;;9.12;54.79
85331;BME280;75738;44.496;11.344;2024-01-25T10:22:37;102032.25;;;9.15;54.58
85331;BME280;75738;44.496;11.344;2024-01-25T10:25:14;101986.81;;;9.18;54.79
85331;BME280;75738;44.496;11.344;2024-01-25T10:27:38;102024.06;;;9.23;54.39
85331;BME280;75738;44.496;11.344;2024-01-25T10:30:08;101999.04;;;9.32;54.63
85331;BME280;75738;44.496;11.344;2024-01-25T10:32:37;102019.93;;;9.19;54.83
85331;BME280;75738;44.496;11.344;2024-01-25T10:35:05;101985.27;;;9.27;54.59
85331;BME280;75738;44.496;11.344;2024-01-25T10:37:33;101990.36;;;9.30;54.84
85331;BME280;75738;44.496;11.344;2024-01-25T10:40:02;101989.73;;;9.32;55.73
85331;BME280;75738;44.496;11.344;2024-01-25T10:42:29;101985.87;;;9.36;55.34
85331;BME280;75738;44.496;11.344;2024-01-25T10:44:57;101988.33;;;9.50;54.16
85331;BME280;75738;44.496;11.344;2024-01-25T10:47:24;101969.59;;;9.52;54.23
85331;BME280;75738;44.496;11.344;2024-01-25T10:49:54;101954.59;;;9.62;54.31
85331;BME280;75738;44.496;11.344;2024-01-25T10:52:22;101961.84;;;9.49;54.88
85331;BME280;75738;44.496;11.344;2024-01-25T10:54:50;101962.84;;;9.65;54.92
85331;BME280;75738;44.496;11.344;2024-01-25T10:57:18;101964.04;;;9.78;54.98
85331;BME280;75738;44.496;11.344;2024-01-25T10:59:46;101959.94;;;9.85;55.39
85331;BME280;75738;44.496;11.344;2024-01-25T11:02:14;101959.09;;;10.13;54.69
85331;BME280;75738;44.496;11.344;2024-01-25T11:04:52;101956.75;;;10.48;55.03
85331;BME280;75738;44.496;11.344;2024-01-25T11:07:13;101961.88;;;10.72;54.21
85331;BME280;75738;44.496;11.344;2024-01-25T11:09:41;101960.80;;;10.96;53.24
85331;BME280;75738;44.496;11.344;2024-01-25T11:12:12;101960.08;;;11.21;52.27
85331;BME280;75738;44.496;11.344;2024-01-25T11:14:42;101957.53;;;11.41;52.23
85331;BME280;75738;44.496;11.344;2024-01-25T11:17:21;101947.98;;;11.54;51.67
85331;BME280;75738;44.496;11.344;2024-01-25T11:19:50;101945.52;;;11.41;51.85
85331;BME280;75738;44.496;11.344;2024-01-25T11:22:18;101937.92;;;11.51;52.47
85331;BME280;75738;44.496;11.344;2024-01-25T11:24:46;101936.84;;;11.79;52.12
85331;BME280;75738;44.496;11.344;2024-01-25T11:27:15;101943.75;;;12.13;51.01
85331;BME280;75738;44.496;11.344;2024-01-25T11:29:42;101955.92;;;12.47;50.48
85331;BME280;75738;44.496;11.344;2024-01-25T11:32:11;101951.16;;;12.70;49.72
85331;BME280;75738;44.496;11.344;2024-01-25T11:34:39;101952.42;;;12.85;49.64
85331;BME280;75738;44.496;11.344;2024-01-25T11:37:06;101952.41;;;13.05;49.08
85331;BME280;75738;44.496;11.344;2024-01-25T11:39:34;101952.58;;;13.27;48.86
85331;BME280;75738;44.496;11.344;2024-01-25T11:42:02;101948.48;;;13.43;48.16
85331;BME280;75738;44.496;11.344;2024-01-25T11:44:30;101952.41;;;13.58;48.10
85331;BME280;75738;44.496;11.344;2024-01-25T11:46:57;101937.67;;;13.72;47.12
85331;BME280;75738;44.496;11.344;2024-01-25T11:49:25;101939.20;;;13.85;46.96
85331;BME280;75738;44.496;11.344;2024-01-25T11:51:52;101934.04;;;14.01;46.45
85331;BME280;75738;44.496;11.344;2024-01-25T11:54:20;101928.70;;;14.19;46.16
85331;BME280;75738;44.496;11.344;2024-01-25T11:56:48;101939.98;;;14.23;46.31
85331;BME280;75738;44.496;11.344;2024-01-25T11:59:16;101938.02;;;14.29;45.91
85331;BME280;75738;44.496;11.344;2024-01-25T12:01:44;101936.13;;;14.39;46.02
85331;BME280;75738;44.496;11.344;2024-01-25T12:04:12;101937.54;;;14.48;45.44
85331;BME280;75738;44.496;11.344;2024-01-25T12:06:39;101933.27;;;14.55;44.59
85331;BME280;75738;44.496;11.344;2024-01-25T12:09:12;101932.39;;;14.50;44.83
85331;BME280;75738;44.496;11.344;2024-01-25T12:11:38;101940.50;;;14.41;45.52
85331;BME280;75738;44.496;11.344;2024-01-25T12:14:08;101945.19;;;14.43;45.34
85331;BME280;75738;44.496;11.344;2024-01-25T12:16:35;101940.11;;;14.35;45.12
85331;BME280;75738;44.496;11.344;2024-01-25T12:19:03;101941.17;;;14.43;44.86
85331;BME280;75738;44.496;11.344;2024-01-25T12:21:35;101946.22;;;14.42;45.09
85331;BME280;75738;44.496;11.344;2024-01-25T12:24:03;101947.85;;;14.38;44.93
85331;BME280;75738;44.496;11.344;2024-01-25T12:26:38;101954.67;;;14.51;44.69
85331;BME280;75738;44.496;11.344;2024-01-25T12:29:03;101954.51;;;14.52;44.44
85331;BME280;75738;44.496;11.344;2024-01-25T12:31:31;101960.57;;;14.54;44.95
85331;BME280;75738;44.496;11.344;2024-01-25T12:34:10;101949.37;;;14.23;45.16
85331;BME280;75738;44.496;11.344;2024-01-25T12:36:28;101943.78;;;14.34;45.25
85331;BME280;75738;44.496;11.344;2024-01-25T12:38:55;101940.45;;;14.36;45.21
85331;BME280;75738;44.496;11.344;2024-01-25T12:41:23;101933.47;;;14.44;44.73
85331;BME280;75738;44.496;11.344;2024-01-25T12:43:50;101932.83;;;14.28;44.84
85331;BME280;75738;44.496;11.344;2024-01-25T12:46:18;101933.28;;;14.23;45.39
85331;BME280;75738;44.496;11.344;2024-01-25T12:48:45;101932.77;;;14.09;45.09
85331;BME280;75738;44.496;11.344;2024-01-25T12:51:13;101931.09;;;14.08;45.47